createdAt,value
2018-03-17T00:02:02.847Z,16.30
2018-03-17T00:04:32.396Z,18.57
2018-03-17T00:07:02.219Z,14.33
2018-03-17T00:09:31.672Z,18.50
2018-03-17T00:12:01.525Z,13.53
2018-03-17T00:14:31.763Z,18.30
2018-03-17T00:17:01.209Z,16.50
2018-03-17T00:19:37.709Z,16.80
2018-03-17T00:22:07.365Z,19.53
2018-03-17T00:24:37.190Z,18.60
2018-03-17T00:27:06.650Z,21.33
2018-03-17T00:29:36.098Z,21.77
2018-03-17T00:32:06.082Z,19.53
2018-03-17T00:34:35.520Z,16.37
2018-03-17T00:37:05.537Z,23.80
2018-03-17T00:39:35.002Z,21.97
2018-03-17T00:42:04.453Z,17.97
2018-03-17T00:44:33.932Z,19.70
2018-03-17T00:47:03.857Z,20.50
2018-03-17T00:49:33.316Z,21.47
2018-03-17T00:52:02.762Z,18.60
2018-03-17T00:54:36.157Z,21.40
2018-03-17T00:57:05.615Z,19.83
2018-03-17T00:59:35.051Z,18.93
2018-03-17T01:02:04.554Z,19.80
2018-03-17T01:04:34.460Z,20.50
2018-03-17T01:07:04.220Z,22.80
2018-03-17T01:09:33.679Z,21.13
2018-03-17T01:12:03.134Z,18.20
2018-03-17T01:14:33.115Z,21.00
2018-03-17T01:17:02.566Z,20.57
2018-03-17T01:19:38.623Z,23.13
2018-03-17T01:22:09.748Z,20.03
2018-03-17T01:24:39.401Z,20.60
2018-03-17T01:27:08.841Z,20.80
2018-03-17T01:29:38.613Z,19.33
2018-03-17T01:32:08.102Z,20.07
2018-03-17T01:34:37.561Z,22.37
2018-03-17T01:37:07.054Z,20.50
2018-03-17T01:39:36.501Z,19.17
2018-03-17T01:42:05.957Z,19.50
2018-03-17T01:44:35.826Z,19.37
2018-03-17T01:47:05.752Z,18.13
2018-03-17T01:49:35.201Z,18.10
2018-03-17T01:52:17.905Z,18.83
2018-03-17T01:54:47.541Z,17.80
2018-03-17T01:57:17.010Z,20.30
2018-03-17T01:59:47.458Z,16.60
2018-03-17T02:02:17.535Z,19.40
2018-03-17T02:04:47.544Z,22.23
2018-03-17T02:07:16.984Z,17.30
2018-03-17T02:09:46.941Z,22.83
2018-03-17T02:12:16.381Z,22.50
2018-03-17T02:14:45.953Z,19.80
2018-03-17T02:17:15.394Z,23.73
2018-03-17T02:19:45.623Z,21.77
2018-03-17T02:22:15.720Z,23.73
2018-03-17T02:24:45.709Z,23.67
2018-03-17T02:27:15.534Z,20.73
2018-03-17T02:29:44.981Z,18.37
2018-03-17T02:32:14.410Z,18.80
2018-03-17T02:34:43.903Z,19.13
2018-03-17T02:37:13.322Z,24.13
2018-03-17T02:39:42.785Z,18.00
2018-03-17T02:42:12.789Z,21.20
2018-03-17T02:44:42.592Z,20.43
2018-03-17T02:47:12.364Z,17.33
2018-03-17T02:49:41.835Z,22.63
2018-03-17T02:52:13.806Z,21.93
2018-03-17T02:54:43.702Z,19.10
2018-03-17T02:57:14.225Z,25.47
2018-03-17T02:59:43.706Z,18.57
2018-03-17T03:02:13.146Z,18.27
2018-03-17T03:04:42.959Z,19.70
2018-03-17T03:07:12.677Z,19.83
2018-03-17T03:09:42.121Z,22.40
2018-03-17T03:12:11.566Z,20.07
2018-03-17T03:14:41.480Z,19.33
2018-03-17T03:17:11.773Z,20.40
2018-03-17T03:19:41.514Z,24.10
2018-03-17T03:22:11.407Z,18.07
2018-03-17T03:24:41.653Z,26.10
2018-03-17T03:27:11.105Z,18.87
2018-03-17T03:29:40.554Z,22.07
2018-03-17T03:32:10.021Z,25.03
2018-03-17T03:34:39.457Z,19.87
2018-03-17T03:37:08.916Z,21.23
2018-03-17T03:39:38.380Z,20.13
2018-03-17T03:42:08.305Z,20.47
2018-03-17T03:44:38.308Z,19.53
2018-03-17T03:47:08.928Z,21.27
2018-03-17T03:49:38.374Z,20.97
2018-03-17T03:52:07.896Z,22.33
2018-03-17T03:54:37.353Z,20.50
2018-03-17T03:57:06.803Z,21.33
2018-03-17T03:59:36.271Z,20.50
2018-03-17T04:02:05.712Z,19.70
2018-03-17T04:04:35.489Z,20.97
2018-03-17T04:07:05.642Z,18.13
2018-03-17T04:09:35.469Z,23.80
2018-03-17T04:12:04.897Z,17.93
2018-03-17T04:14:34.546Z,20.10
2018-03-17T04:17:04.308Z,18.87
2018-03-17T04:19:40.228Z,23.90
2018-03-17T04:22:16.065Z,22.90
2018-03-17T04:24:45.676Z,19.53
2018-03-17T04:27:15.196Z,23.90
2018-03-17T04:29:44.640Z,21.00
2018-03-17T04:32:14.230Z,20.70
2018-03-17T04:34:43.664Z,22.53
2018-03-17T04:37:13.108Z,20.47
2018-03-17T04:39:42.564Z,22.40
2018-03-17T04:42:12.001Z,17.47
2018-03-17T04:44:41.762Z,21.50
2018-03-17T04:47:11.269Z,16.07
2018-03-17T04:49:40.703Z,20.20
2018-03-17T04:52:10.141Z,18.70
2018-03-17T04:54:39.767Z,19.87
2018-03-17T04:57:09.202Z,24.50
2018-03-17T04:59:38.649Z,19.00
2018-03-17T05:02:08.109Z,19.80
2018-03-17T05:04:38.333Z,19.60
2018-03-17T05:07:08.170Z,22.97
2018-03-17T05:09:37.605Z,19.13
2018-03-17T05:12:07.135Z,18.33
2018-03-17T05:14:36.801Z,21.10
2018-03-17T05:17:06.515Z,20.33
2018-03-17T05:19:39.112Z,18.73
2018-03-17T05:22:14.641Z,17.63
2018-03-17T05:24:44.177Z,16.80
2018-03-17T05:27:13.616Z,18.90
2018-03-17T05:29:43.064Z,20.07
2018-03-17T05:32:12.510Z,24.53
2018-03-17T05:34:41.952Z,19.50
2018-03-17T05:37:11.402Z,21.60
2018-03-17T05:39:40.861Z,20.60
2018-03-17T05:42:11.224Z,14.37
2018-03-17T05:44:40.929Z,19.53
2018-03-17T05:47:10.653Z,17.67
2018-03-17T05:49:40.101Z,22.80
2018-03-17T05:52:09.557Z,17.37
2018-03-17T05:54:39.363Z,22.67
2018-03-17T05:57:08.788Z,19.07
2018-03-17T05:59:38.666Z,23.20
2018-03-17T06:02:08.103Z,19.10
2018-03-17T06:04:37.907Z,18.50
2018-03-17T06:07:08.098Z,19.60
2018-03-17T06:09:37.899Z,19.47
2018-03-17T06:12:07.336Z,18.67
2018-03-17T06:14:37.136Z,19.13
2018-03-17T06:17:06.861Z,23.73
2018-03-17T06:19:38.083Z,20.07
2018-03-17T06:22:07.748Z,17.70
2018-03-17T06:24:37.440Z,17.73
2018-03-17T06:27:06.860Z,19.90
2018-03-17T06:29:36.296Z,16.03
2018-03-17T06:32:05.765Z,21.47
2018-03-17T06:34:35.207Z,18.60
2018-03-17T06:37:05.148Z,19.10
2018-03-17T06:39:34.585Z,20.90
2018-03-17T06:42:09.965Z,20.17
2018-03-17T06:44:39.492Z,19.30
2018-03-17T06:47:09.310Z,21.27
2018-03-17T06:49:38.753Z,17.80
2018-03-17T06:52:08.420Z,19.33
2018-03-17T06:54:38.236Z,17.70
2018-03-17T06:57:08.185Z,17.90
2018-03-17T06:59:37.626Z,15.83
2018-03-17T07:02:07.104Z,17.80
2018-03-17T07:04:36.889Z,18.03
2018-03-17T07:07:06.871Z,18.00
2018-03-17T07:09:36.325Z,17.57
2018-03-17T07:12:05.761Z,17.93
2018-03-17T07:14:35.947Z,20.53
2018-03-17T07:17:06.457Z,18.90
2018-03-17T07:19:42.122Z,17.37
2018-03-17T07:22:12.298Z,15.03
2018-03-17T07:24:42.564Z,16.50
2018-03-17T07:27:12.032Z,18.47
2018-03-17T07:29:41.995Z,15.30
2018-03-17T07:32:12.117Z,18.90
2018-03-17T07:34:41.565Z,17.93
2018-03-17T07:37:11.010Z,16.37
2018-03-17T07:39:40.481Z,17.80
2018-03-17T07:42:09.935Z,18.53
2018-03-17T07:44:39.642Z,17.50
2018-03-17T07:47:09.517Z,19.00
2018-03-17T07:49:38.966Z,18.03
2018-03-17T07:52:08.770Z,18.63
2018-03-17T07:54:38.890Z,14.07
2018-03-17T07:57:08.475Z,18.73
2018-03-17T07:59:37.898Z,20.40
2018-03-17T08:02:07.340Z,19.70
2018-03-17T08:04:37.021Z,16.50
2018-03-17T08:07:06.925Z,18.97
2018-03-17T08:09:36.365Z,14.40
2018-03-17T08:12:05.815Z,15.37
2018-03-17T08:14:35.962Z,13.87
2018-03-17T08:17:05.750Z,15.93
2018-03-17T08:19:38.989Z,15.57
2018-03-17T08:22:08.904Z,15.77
2018-03-17T08:24:38.873Z,13.13
2018-03-17T08:27:08.305Z,12.53
2018-03-17T08:29:38.216Z,17.10
2018-03-17T08:32:07.669Z,17.90
2018-03-17T08:34:37.105Z,17.50
2018-03-17T08:37:06.944Z,13.40
2018-03-17T08:39:36.382Z,13.13
2018-03-17T08:42:05.827Z,14.40
2018-03-17T08:44:35.869Z,18.37
2018-03-17T08:47:05.569Z,16.57
2018-03-17T08:49:35.012Z,17.50
2018-03-17T08:52:04.541Z,15.60
2018-03-17T08:54:34.642Z,14.97
2018-03-17T08:57:09.696Z,14.37
2018-03-17T08:59:39.220Z,15.77
2018-03-17T09:02:08.992Z,13.77
2018-03-17T09:04:38.453Z,15.80
2018-03-17T09:07:08.381Z,15.23
2018-03-17T09:09:37.825Z,13.57
2018-03-17T09:12:07.356Z,15.23
2018-03-17T09:14:37.441Z,13.90
2018-03-17T09:17:07.393Z,13.50
2018-03-17T09:19:38.507Z,16.00
2018-03-17T09:22:08.512Z,12.97
2018-03-17T09:24:38.198Z,15.70
2018-03-17T09:27:09.197Z,13.30
2018-03-17T09:29:38.641Z,13.33
2018-03-17T09:32:08.461Z,13.87
2018-03-17T09:34:37.917Z,11.90
2018-03-17T09:37:07.381Z,12.17
2018-03-17T09:39:36.844Z,14.40
2018-03-17T09:42:06.900Z,10.63
2018-03-17T09:44:36.717Z,13.50
2018-03-17T09:47:11.547Z,14.23
2018-03-17T09:49:41.269Z,10.50
2018-03-17T09:52:10.995Z,15.30
2018-03-17T09:54:40.868Z,22.30
2018-03-17T09:57:10.311Z,13.37
2018-03-17T09:59:39.877Z,14.17
2018-03-17T10:02:10.072Z,12.60
2018-03-17T10:04:40.135Z,14.37
2018-03-17T10:07:10.295Z,14.30
2018-03-17T10:09:40.192Z,15.13
2018-03-17T10:12:09.653Z,18.93
2018-03-17T10:14:39.811Z,15.70
2018-03-17T10:17:09.233Z,15.47
2018-03-17T10:19:40.036Z,13.53
2018-03-17T10:22:09.480Z,12.17
2018-03-17T10:24:39.574Z,16.40
2018-03-17T10:27:09.012Z,13.27
2018-03-17T10:29:38.453Z,16.70
2018-03-17T10:32:08.300Z,15.33
2018-03-17T10:34:38.104Z,14.00
2018-03-17T10:37:07.540Z,13.03
2018-03-17T10:39:37.476Z,11.70
2018-03-17T10:42:06.937Z,11.87
2018-03-17T10:44:36.914Z,12.37
2018-03-17T10:47:07.218Z,13.50
2018-03-17T10:49:37.084Z,13.40
2018-03-17T10:52:07.178Z,12.40
2018-03-17T10:54:37.021Z,16.70
2018-03-17T10:57:06.453Z,16.27
2018-03-17T10:59:35.923Z,14.87
2018-03-17T11:02:05.386Z,14.37
2018-03-17T11:04:34.860Z,20.37
2018-03-17T11:07:04.756Z,13.33
2018-03-17T11:09:34.424Z,13.10
2018-03-17T11:12:04.161Z,14.60
2018-03-17T11:14:34.285Z,12.80
2018-03-17T11:17:03.723Z,17.63
2018-03-17T11:19:39.053Z,15.87
2018-03-17T11:22:09.128Z,14.00
2018-03-17T11:24:39.469Z,15.23
2018-03-17T11:27:09.708Z,12.50
2018-03-17T11:29:39.141Z,13.50
2018-03-17T11:32:09.226Z,12.67
2018-03-17T11:34:38.666Z,15.07
2018-03-17T11:37:08.468Z,13.37
2018-03-17T11:39:38.064Z,13.83
2018-03-17T11:42:12.529Z,14.27
2018-03-17T11:44:42.473Z,15.63
2018-03-17T11:47:12.249Z,16.67
2018-03-17T11:49:42.450Z,14.00
2018-03-17T11:52:12.207Z,14.40
2018-03-17T11:54:42.235Z,10.93
2018-03-17T11:57:11.653Z,12.93
2018-03-17T11:59:41.185Z,14.17
2018-03-17T12:02:10.768Z,15.00
2018-03-17T12:04:40.737Z,12.50
2018-03-17T12:07:11.015Z,13.27
2018-03-17T12:09:40.744Z,10.43
2018-03-17T12:12:10.321Z,16.10
2018-03-17T12:14:39.766Z,13.47
2018-03-17T12:17:09.207Z,13.30
2018-03-17T12:19:38.770Z,12.50
2018-03-17T12:22:08.197Z,11.87
2018-03-17T12:24:38.649Z,11.03
2018-03-17T12:27:08.328Z,13.20
2018-03-17T12:29:37.764Z,14.63
2018-03-17T12:32:07.732Z,14.20
2018-03-17T12:34:37.163Z,12.23
2018-03-17T12:37:06.604Z,12.07
2018-03-17T12:39:36.429Z,16.63
2018-03-17T12:42:06.377Z,13.90
2018-03-17T12:44:36.258Z,10.30
2018-03-17T12:47:06.195Z,12.70
2018-03-17T12:49:36.080Z,10.47
2018-03-17T12:52:05.570Z,9.77
2018-03-17T12:54:34.990Z,14.70
2018-03-17T12:57:04.471Z,13.17
2018-03-17T12:59:34.068Z,13.37
2018-03-17T13:02:03.640Z,10.47
2018-03-17T13:04:33.594Z,11.50
2018-03-17T13:07:03.492Z,12.00
2018-03-17T13:09:32.929Z,12.20
2018-03-17T13:12:02.373Z,10.70
2018-03-17T13:14:31.818Z,9.60
2018-03-17T13:17:01.239Z,14.10
2018-03-17T13:19:37.845Z,9.90
2018-03-17T13:22:07.741Z,9.43
2018-03-17T13:24:37.379Z,17.93
2018-03-17T13:27:12.681Z,12.90
2018-03-17T13:29:42.129Z,9.17
2018-03-17T13:32:17.761Z,11.23
2018-03-17T13:34:47.194Z,11.90
2018-03-17T13:37:23.302Z,10.07
2018-03-17T13:39:52.737Z,12.00
2018-03-17T13:42:22.173Z,10.47
2018-03-17T13:44:51.960Z,10.77
2018-03-17T13:47:25.147Z,9.90
2018-03-17T13:49:54.603Z,11.43
2018-03-17T13:52:24.069Z,11.73
2018-03-17T13:54:53.508Z,9.83
2018-03-17T13:57:22.941Z,12.73
2018-03-17T13:59:52.884Z,14.20
2018-03-17T14:02:23.064Z,11.30
2018-03-17T14:04:52.514Z,12.40
2018-03-17T14:07:22.524Z,12.10
2018-03-17T14:09:51.953Z,9.37
2018-03-17T14:12:21.395Z,13.50
2018-03-17T14:14:50.857Z,12.80
2018-03-17T14:17:20.688Z,13.80
2018-03-17T14:19:51.080Z,11.67
2018-03-17T14:22:20.505Z,13.17
2018-03-17T14:24:50.308Z,15.57
2018-03-17T14:27:19.742Z,11.60
2018-03-17T14:29:49.177Z,13.43
2018-03-17T14:32:18.812Z,12.07
2018-03-17T14:34:48.254Z,13.73
2018-03-17T14:37:17.683Z,9.47
2018-03-17T14:39:47.940Z,10.53
2018-03-17T14:42:17.364Z,9.17
2018-03-17T14:44:47.481Z,9.70
2018-03-17T14:47:23.947Z,12.20
2018-03-17T14:49:53.367Z,13.50
2018-03-17T14:52:22.868Z,13.67
2018-03-17T14:54:52.913Z,13.00
2018-03-17T14:57:22.350Z,11.33
2018-03-17T14:59:52.104Z,10.80
2018-03-17T15:02:21.542Z,17.03
2018-03-17T15:04:50.976Z,13.80
2018-03-17T15:07:21.072Z,11.10
2018-03-17T15:09:50.756Z,12.07
2018-03-17T15:12:20.204Z,15.10
2018-03-17T15:14:49.639Z,12.63
2018-03-17T15:17:19.757Z,15.73
2018-03-17T15:19:49.597Z,12.00
2018-03-17T15:22:19.016Z,10.90
2018-03-17T15:24:48.757Z,13.13
2018-03-17T15:27:18.185Z,16.63
2018-03-17T15:29:47.615Z,11.20
2018-03-17T15:32:17.079Z,14.73
2018-03-17T15:34:46.516Z,10.80
2018-03-17T15:37:15.952Z,11.50
2018-03-17T15:39:45.727Z,14.93
2018-03-17T15:42:15.161Z,12.83
2018-03-17T15:44:44.650Z,12.97
2018-03-17T15:47:14.760Z,14.20
2018-03-17T15:49:44.862Z,15.70
2018-03-17T15:52:14.514Z,14.07
2018-03-17T15:54:44.069Z,12.73
2018-03-17T15:57:13.566Z,15.53
2018-03-17T15:59:43.084Z,13.53
2018-03-17T16:02:12.517Z,11.43
2018-03-17T16:04:41.945Z,12.97
2018-03-17T16:07:12.041Z,14.00
2018-03-17T16:09:41.470Z,14.87
2018-03-17T16:12:10.917Z,13.00
2018-03-17T16:14:40.370Z,11.93
2018-03-17T16:17:10.988Z,15.33
2018-03-17T16:19:40.919Z,12.60
2018-03-17T16:22:10.352Z,16.80
2018-03-17T16:24:40.160Z,14.10
2018-03-17T16:27:09.588Z,14.20
2018-03-17T16:29:39.028Z,13.87
2018-03-17T16:32:08.492Z,18.87
2018-03-17T16:34:37.916Z,13.47
2018-03-17T16:37:08.257Z,17.73
2018-03-17T16:39:37.694Z,14.17
2018-03-17T16:42:08.287Z,16.20
2018-03-17T16:44:37.793Z,13.90
2018-03-17T16:47:07.325Z,17.83
2018-03-17T16:49:37.014Z,12.73
2018-03-17T16:52:06.626Z,16.57
2018-03-17T16:54:36.067Z,15.30
2018-03-17T16:57:05.739Z,14.93
2018-03-17T16:59:35.169Z,13.97
2018-03-17T17:02:04.613Z,14.80
2018-03-17T17:04:34.095Z,14.87
2018-03-17T17:07:04.279Z,21.83
2018-03-17T17:09:33.713Z,15.50
2018-03-17T17:12:03.161Z,16.53
2018-03-17T17:14:32.670Z,13.03
2018-03-17T17:17:02.104Z,14.00
2018-03-17T17:22:06.969Z,21.70
2018-03-17T17:24:36.771Z,12.63
2018-03-17T17:27:06.464Z,16.70
2018-03-17T17:29:36.075Z,14.73
2018-03-17T17:32:09.132Z,16.20
2018-03-17T17:34:38.592Z,13.87
2018-03-17T17:37:08.033Z,16.73
2018-03-17T17:39:37.485Z,14.57
2018-03-17T17:42:07.017Z,17.60
2018-03-17T17:44:36.896Z,17.08
2018-03-17T17:47:06.621Z,14.23
2018-03-17T17:49:36.083Z,13.63
2018-03-17T17:52:05.533Z,14.30
2018-03-17T17:54:35.096Z,19.00
2018-03-17T17:57:05.155Z,13.95
2018-03-17T17:59:34.672Z,15.23
2018-03-17T18:02:04.451Z,15.23
2018-03-17T18:04:33.888Z,14.13
2018-03-17T18:07:03.801Z,10.87
2018-03-17T18:09:33.225Z,14.13
2018-03-17T18:12:02.685Z,18.98
2018-03-17T18:14:32.521Z,13.47
2018-03-17T18:17:01.996Z,14.95
2018-03-17T18:22:07.405Z,16.00
2018-03-17T18:24:37.498Z,10.80
2018-03-17T18:27:07.410Z,16.80
2018-03-17T18:29:37.353Z,14.83
2018-03-17T18:32:07.503Z,15.07
2018-03-17T18:34:36.949Z,11.65
2018-03-17T18:37:07.081Z,12.10
2018-03-17T18:39:36.581Z,12.57
2018-03-17T18:42:06.318Z,13.13
2018-03-17T18:44:36.247Z,14.05
2018-03-17T18:47:06.320Z,13.00
2018-03-17T18:49:36.136Z,15.15
2018-03-17T18:52:06.026Z,12.95
2018-03-17T18:54:35.564Z,12.20
2018-03-17T18:57:05.006Z,15.15
2018-03-17T18:59:34.627Z,14.45
2018-03-17T19:02:04.368Z,12.80
2018-03-17T19:04:34.100Z,13.18
2018-03-17T19:07:04.010Z,13.75
2018-03-17T19:09:34.210Z,11.93
2018-03-17T19:12:03.644Z,13.18
2018-03-17T19:14:33.098Z,11.77
2018-03-17T19:17:02.544Z,12.02
2018-03-17T19:19:39.338Z,14.70
2018-03-17T19:22:08.933Z,12.98
2018-03-17T19:24:38.749Z,12.80
2018-03-17T19:27:08.656Z,12.93
2018-03-17T19:29:38.618Z,13.43
2018-03-17T19:32:08.497Z,13.18
2018-03-17T19:34:37.935Z,12.18
2018-03-17T19:37:07.485Z,14.68
2018-03-17T19:39:37.013Z,15.80
2018-03-17T19:42:06.448Z,18.85
2018-03-17T19:44:36.461Z,15.88
2018-03-17T19:47:06.205Z,13.32
2018-03-17T19:49:35.752Z,10.63
2018-03-17T19:52:05.137Z,11.30
2018-03-17T19:54:34.574Z,11.88
2018-03-17T19:57:04.069Z,12.30
2018-03-17T19:59:33.556Z,9.85
2018-03-17T20:02:03.393Z,14.05
2018-03-17T20:04:33.416Z,12.65
2018-03-17T20:07:03.227Z,16.92
2018-03-17T20:09:32.673Z,11.55
2018-03-17T20:12:02.119Z,11.57
2018-03-17T20:14:31.573Z,14.90
2018-03-17T20:17:01.014Z,17.58
2018-03-17T20:19:30.953Z,12.45
2018-03-17T20:22:01.077Z,12.37
2018-03-17T20:24:30.803Z,12.90
2018-03-17T20:27:00.697Z,15.77
2018-03-17T20:29:30.822Z,11.60
2018-03-17T20:32:00.344Z,13.45
2018-03-17T20:34:29.788Z,13.52
2018-03-17T20:36:59.353Z,13.88
2018-03-17T20:39:28.793Z,16.45
2018-03-17T20:41:58.296Z,12.18
2018-03-17T20:44:28.041Z,11.80
2018-03-17T20:46:57.516Z,11.12
2018-03-17T20:49:27.847Z,13.25
2018-03-17T20:51:57.507Z,12.43
2018-03-17T20:54:26.936Z,12.27
2018-03-17T20:56:56.745Z,11.80
2018-03-17T20:59:26.259Z,15.88
2018-03-17T21:01:55.698Z,16.77
2018-03-17T21:04:25.969Z,12.63
2018-03-17T21:07:00.380Z,14.00
2018-03-17T21:09:30.195Z,15.73
